sensor_id;sensor_type;location;lat;lon;timestamp;temperature;humidity
5930;DHT22;2990;48.746;9.236;2023-03-26T00:01:23;6.60;1.00
5930;DHT22;2990;48.746;9.236;2023-03-26T00:03:53;6.60;1.00
5930;DHT22;2990;48.746;9.236;2023-03-26T00:06:28;6.60;1.00
5930;DHT22;2990;48.746;9.236;2023-03-26T00:09:07;6.80;1.00
5930;DHT22;2990;48.746;9.236;2023-03-26T00:11:34;6.70;1.00
5930;DHT22;2990;48.746;9.236;2023-03-26T00:14:02;6.50;1.00
5930;DHT22;2990;48.746;9.236;2023-03-26T00:16:31;6.60;1.00
5930;DHT22;2990;48.746;9.236;2023-03-26T00:19:00;6.50;1.00
5930;DHT22;2990;48.746;9.236;2023-03-26T00:21:30;6.50;1.00
5930;DHT22;2990;48.746;9.236;2023-03-26T00:23:58;6.50;1.00
5930;DHT22;2990;48.746;9.236;2023-03-26T00:26:28;6.50;1.00
5930;DHT22;2990;48.746;9.236;2023-03-26T00:28:58;6.50;1.00
5930;DHT22;2990;48.746;9.236;2023-03-26T00:31:28;6.60;1.00
5930;DHT22;2990;48.746;9.236;2023-03-26T00:33:54;6.60;1.00
5930;DHT22;2990;48.746;9.236;2023-03-26T00:36:22;6.60;1.00
5930;DHT22;2990;48.746;9.236;2023-03-26T00:38:49;6.60;1.00
5930;DHT22;2990;48.746;9.236;2023-03-26T00:41:18;6.70;1.00
5930;DHT22;2990;48.746;9.236;2023-03-26T00:43:51;6.60;1.00
5930;DHT22;2990;48.746;9.236;2023-03-26T00:46:18;6.70;1.00
5930;DHT22;2990;48.746;9.236;2023-03-26T00:48:49;6.60;1.00
5930;DHT22;2990;48.746;9.236;2023-03-26T00:51:17;6.50;1.00
5930;DHT22;2990;48.746;9.236;2023-03-26T00:53:45;6.60;1.00
5930;DHT22;2990;48.746;9.236;2023-03-26T00:56:11;6.50;1.00
5930;DHT22;2990;48.746;9.236;2023-03-26T00:58:37;6.50;1.00
5930;DHT22;2990;48.746;9.236;2023-03-26T01:01:09;6.40;1.00
5930;DHT22;2990;48.746;9.236;2023-03-26T01:03:38;6.40;1.00
5930;DHT22;2990;48.746;9.236;2023-03-26T01:06:07;6.60;1.00
5930;DHT22;2990;48.746;9.236;2023-03-26T01:08:48;6.40;1.00
5930;DHT22;2990;48.746;9.236;2023-03-26T01:11:24;6.40;1.00
5930;DHT22;2990;48.746;9.236;2023-03-26T01:13:57;6.40;1.00
5930;DHT22;2990;48.746;9.236;2023-03-26T01:16:34;6.50;1.00
5930;DHT22;2990;48.746;9.236;2023-03-26T01:19:04;6.50;1.00
5930;DHT22;2990;48.746;9.236;2023-03-26T01:21:34;6.50;1.00
5930;DHT22;2990;48.746;9.236;2023-03-26T01:24:08;6.70;1.00
5930;DHT22;2990;48.746;9.236;2023-03-26T01:29:34;6.40;1.00
5930;DHT22;2990;48.746;9.236;2023-03-26T01:37:28;6.50;1.00
5930;DHT22;2990;48.746;9.236;2023-03-26T01:40:28;6.50;1.00
5930;DHT22;2990;48.746;9.236;2023-03-26T01:45:46;6.50;1.00
5930;DHT22;2990;48.746;9.236;2023-03-26T01:48:18;6.50;1.00
5930;DHT22;2990;48.746;9.236;2023-03-26T01:50:47;6.50;1.00
5930;DHT22;2990;48.746;9.236;2023-03-26T01:53:15;6.60;1.00
5930;DHT22;2990;48.746;9.236;2023-03-26T01:56:08;6.60;1.00
5930;DHT22;2990;48.746;9.236;2023-03-26T02:01:25;6.50;1.00
5930;DHT22;2990;48.746;9.236;2023-03-26T02:04:05;6.60;1.00
5930;DHT22;2990;48.746;9.236;2023-03-26T02:06:45;6.50;1.00
5930;DHT22;2990;48.746;9.236;2023-03-26T02:09:20;6.50;1.00
5930;DHT22;2990;48.746;9.236;2023-03-26T02:11:51;6.60;1.00
5930;DHT22;2990;48.746;9.236;2023-03-26T02:14:18;6.80;1.00
5930;DHT22;2990;48.746;9.236;2023-03-26T02:16:44;6.80;1.00
5930;DHT22;2990;48.746;9.236;2023-03-26T02:19:13;6.60;1.00
5930;DHT22;2990;48.746;9.236;2023-03-26T02:21:46;6.60;1.00
5930;DHT22;2990;48.746;9.236;2023-03-26T02:24:16;6.60;1.00
5930;DHT22;2990;48.746;9.236;2023-03-26T02:26:44;6.50;1.00
5930;DHT22;2990;48.746;9.236;2023-03-26T02:29:12;6.50;1.00
5930;DHT22;2990;48.746;9.236;2023-03-26T02:31:45;6.50;1.00
5930;DHT22;2990;48.746;9.236;2023-03-26T02:34:17;6.60;1.00
5930;DHT22;2990;48.746;9.236;2023-03-26T02:36:43;6.50;1.00
5930;DHT22;2990;48.746;9.236;2023-03-26T02:39:14;6.60;99.90
5930;DHT22;2990;48.746;9.236;2023-03-26T02:41:40;6.60;99.90
5930;DHT22;2990;48.746;9.236;2023-03-26T02:44:06;6.60;99.90
5930;DHT22;2990;48.746;9.236;2023-03-26T02:46:32;6.50;99.90
5930;DHT22;2990;48.746;9.236;2023-03-26T02:48:58;6.70;99.90
5930;DHT22;2990;48.746;9.236;2023-03-26T02:51:26;6.50;1.00
5930;DHT22;2990;48.746;9.236;2023-03-26T02:53:59;6.60;1.00
5930;DHT22;2990;48.746;9.236;2023-03-26T02:56:34;6.50;1.00
5930;DHT22;2990;48.746;9.236;2023-03-26T02:59:00;6.50;99.90
5930;DHT22;2990;48.746;9.236;2023-03-26T03:01:32;6.50;1.00
5930;DHT22;2990;48.746;9.236;2023-03-26T03:04:00;6.60;1.00
5930;DHT22;2990;48.746;9.236;2023-03-26T03:06:26;6.60;1.00
5930;DHT22;2990;48.746;9.236;2023-03-26T03:08:55;6.70;99.90
5930;DHT22;2990;48.746;9.236;2023-03-26T03:11:23;6.70;99.90
5930;DHT22;2990;48.746;9.236;2023-03-26T03:13:52;6.60;1.00
5930;DHT22;2990;48.746;9.236;2023-03-26T03:16:24;6.60;99.90
5930;DHT22;2990;48.746;9.236;2023-03-26T03:18:55;6.50;99.90
5930;DHT22;2990;48.746;9.236;2023-03-26T03:21:26;6.60;99.90
5930;DHT22;2990;48.746;9.236;2023-03-26T03:23:59;6.70;99.90
5930;DHT22;2990;48.746;9.236;2023-03-26T03:26:28;6.60;99.90
5930;DHT22;2990;48.746;9.236;2023-03-26T03:28:57;6.60;99.90
5930;DHT22;2990;48.746;9.236;2023-03-26T03:31:28;6.70;99.90
5930;DHT22;2990;48.746;9.236;2023-03-26T03:33:57;6.70;99.90
5930;DHT22;2990;48.746;9.236;2023-03-26T03:36:23;6.70;99.90
5930;DHT22;2990;48.746;9.236;2023-03-26T03:38:54;6.80;99.90
5930;DHT22;2990;48.746;9.236;2023-03-26T03:41:23;6.70;99.90
5930;DHT22;2990;48.746;9.236;2023-03-26T03:43:49;6.70;99.90
5930;DHT22;2990;48.746;9.236;2023-03-26T03:46:18;6.70;99.90
5930;DHT22;2990;48.746;9.236;2023-03-26T03:48:52;6.60;99.90
5930;DHT22;2990;48.746;9.236;2023-03-26T03:51:18;6.70;99.90
5930;DHT22;2990;48.746;9.236;2023-03-26T03:53:56;6.70;99.90
5930;DHT22;2990;48.746;9.236;2023-03-26T03:56:25;6.70;99.90
5930;DHT22;2990;48.746;9.236;2023-03-26T03:58:51;6.70;99.90
5930;DHT22;2990;48.746;9.236;2023-03-26T04:01:22;6.70;99.90
5930;DHT22;2990;48.746;9.236;2023-03-26T04:03:50;6.80;99.90
5930;DHT22;2990;48.746;9.236;2023-03-26T04:06:18;6.70;99.90
5930;DHT22;2990;48.746;9.236;2023-03-26T04:08:45;6.90;99.90
5930;DHT22;2990;48.746;9.236;2023-03-26T04:11:16;6.80;99.90
5930;DHT22;2990;48.746;9.236;2023-03-26T04:13:47;6.80;99.90
5930;DHT22;2990;48.746;9.236;2023-03-26T04:16:21;6.70;99.90
5930;DHT22;2990;48.746;9.236;2023-03-26T04:18:47;6.90;99.90
5930;DHT22;2990;48.746;9.236;2023-03-26T04:21:13;6.80;99.90
5930;DHT22;2990;48.746;9.236;2023-03-26T04:23:40;6.70;99.90
5930;DHT22;2990;48.746;9.236;2023-03-26T04:26:16;6.70;99.90
5930;DHT22;2990;48.746;9.236;2023-03-26T04:28:53;6.80;99.90
5930;DHT22;2990;48.746;9.236;2023-03-26T04:31:24;6.80;29.80
5930;DHT22;2990;48.746;9.236;2023-03-26T04:33:58;6.80;13.90
5930;DHT22;2990;48.746;9.236;2023-03-26T04:36:34;6.90;1.00
5930;DHT22;2990;48.746;9.236;2023-03-26T04:39:08;6.90;1.00
5930;DHT22;2990;48.746;9.236;2023-03-26T04:41:35;6.80;1.00
5930;DHT22;2990;48.746;9.236;2023-03-26T04:44:01;6.90;1.00
5930;DHT22;2990;48.746;9.236;2023-03-26T04:46:27;6.80;1.00
5930;DHT22;2990;48.746;9.236;2023-03-26T04:48:58;6.80;1.00
5930;DHT22;2990;48.746;9.236;2023-03-26T04:51:34;6.80;1.00
5930;DHT22;2990;48.746;9.236;2023-03-26T04:54:03;6.90;1.00
5930;DHT22;2990;48.746;9.236;2023-03-26T04:56:56;6.90;1.00
5930;DHT22;2990;48.746;9.236;2023-03-26T04:59:27;6.90;1.00
5930;DHT22;2990;48.746;9.236;2023-03-26T05:01:56;6.90;1.00
5930;DHT22;2990;48.746;9.236;2023-03-26T05:04:26;7.00;1.00
5930;DHT22;2990;48.746;9.236;2023-03-26T05:06:55;6.90;99.90
5930;DHT22;2990;48.746;9.236;2023-03-26T05:09:23;7.00;1.00
5930;DHT22;2990;48.746;9.236;2023-03-26T05:12:05;7.00;99.90
5930;DHT22;2990;48.746;9.236;2023-03-26T05:14:33;7.00;99.90
5930;DHT22;2990;48.746;9.236;2023-03-26T05:17:03;7.00;99.90
5930;DHT22;2990;48.746;9.236;2023-03-26T05:19:35;7.00;99.90
5930;DHT22;2990;48.746;9.236;2023-03-26T05:22:10;7.10;99.90
5930;DHT22;2990;48.746;9.236;2023-03-26T05:24:52;7.00;99.90
5930;DHT22;2990;48.746;9.236;2023-03-26T05:27:22;7.00;1.00
5930;DHT22;2990;48.746;9.236;2023-03-26T05:29:58;7.10;99.90
5930;DHT22;2990;48.746;9.236;2023-03-26T05:32:32;7.00;99.90
5930;DHT22;2990;48.746;9.236;2023-03-26T05:35:08;6.80;1.00
5930;DHT22;2990;48.746;9.236;2023-03-26T05:37:48;6.90;1.00
5930;DHT22;2990;48.746;9.236;2023-03-26T05:40:16;6.90;99.90
5930;DHT22;2990;48.746;9.236;2023-03-26T05:42:51;7.00;99.90
5930;DHT22;2990;48.746;9.236;2023-03-26T05:45:17;6.80;1.00
5930;DHT22;2990;48.746;9.236;2023-03-26T05:47:49;6.80;1.00
5930;DHT22;2990;48.746;9.236;2023-03-26T05:50:27;6.80;1.00
5930;DHT22;2990;48.746;9.236;2023-03-26T05:53:00;6.90;1.00
5930;DHT22;2990;48.746;9.236;2023-03-26T05:55:29;6.80;1.00
5930;DHT22;2990;48.746;9.236;2023-03-26T05:58:03;6.90;1.00
5930;DHT22;2990;48.746;9.236;2023-03-26T06:00:34;6.80;1.00
5930;DHT22;2990;48.746;9.236;2023-03-26T06:03:07;6.90;1.00
5930;DHT22;2990;48.746;9.236;2023-03-26T06:05:41;6.80;1.00
5930;DHT22;2990;48.746;9.236;2023-03-26T06:08:12;6.80;1.00
5930;DHT22;2990;48.746;9.236;2023-03-26T06:10:43;6.80;1.00
5930;DHT22;2990;48.746;9.236;2023-03-26T06:13:12;6.80;1.00
5930;DHT22;2990;48.746;9.236;2023-03-26T06:15:41;6.70;1.00
5930;DHT22;2990;48.746;9.236;2023-03-26T06:18:13;6.80;53.10
5930;DHT22;2990;48.746;9.236;2023-03-26T06:20:42;6.80;1.00
5930;DHT22;2990;48.746;9.236;2023-03-26T06:23:11;6.80;1.00
5930;DHT22;2990;48.746;9.236;2023-03-26T06:25:37;6.80;99.90
5930;DHT22;2990;48.746;9.236;2023-03-26T06:28:09;6.90;99.90
5930;DHT22;2990;48.746;9.236;2023-03-26T06:30:48;6.70;83.10
5930;DHT22;2990;48.746;9.236;2023-03-26T06:33:25;6.80;99.90
5930;DHT22;2990;48.746;9.236;2023-03-26T06:35:51;6.90;1.00
5930;DHT22;2990;48.746;9.236;2023-03-26T06:38:22;7.00;1.00
5930;DHT22;2990;48.746;9.236;2023-03-26T06:40:53;6.90;1.00
5930;DHT22;2990;48.746;9.236;2023-03-26T06:43:22;6.90;99.90
5930;DHT22;2990;48.746;9.236;2023-03-26T06:46:14;7.00;1.00
5930;DHT22;2990;48.746;9.236;2023-03-26T06:48:56;6.90;99.90
5930;DHT22;2990;48.746;9.236;2023-03-26T06:52:21;7.00;99.90
5930;DHT22;2990;48.746;9.236;2023-03-26T06:54:52;7.00;1.00
5930;DHT22;2990;48.746;9.236;2023-03-26T06:57:21;7.00;1.00
5930;DHT22;2990;48.746;9.236;2023-03-26T06:59:52;7.10;99.90
5930;DHT22;2990;48.746;9.236;2023-03-26T07:02:32;7.20;1.00
5930;DHT22;2990;48.746;9.236;2023-03-26T07:07:56;6.90;1.00
5930;DHT22;2990;48.746;9.236;2023-03-26T07:10:33;7.10;99.90
5930;DHT22;2990;48.746;9.236;2023-03-26T07:13:04;6.90;1.00
5930;DHT22;2990;48.746;9.236;2023-03-26T07:15:30;7.00;1.00
5930;DHT22;2990;48.746;9.236;2023-03-26T07:17:59;7.00;19.60
5930;DHT22;2990;48.746;9.236;2023-03-26T07:20:30;7.00;1.00
5930;DHT22;2990;48.746;9.236;2023-03-26T07:23:05;7.10;1.00
5930;DHT22;2990;48.746;9.236;2023-03-26T07:25:36;7.10;1.00
5930;DHT22;2990;48.746;9.236;2023-03-26T07:34:39;6.90;99.90
5930;DHT22;2990;48.746;9.236;2023-03-26T07:40:39;7.00;1.00
5930;DHT22;2990;48.746;9.236;2023-03-26T07:43:51;6.80;74.70
5930;DHT22;2990;48.746;9.236;2023-03-26T07:46:32;6.90;99.90
5930;DHT22;2990;48.746;9.236;2023-03-26T07:49:04;7.00;99.90
5930;DHT22;2990;48.746;9.236;2023-03-26T07:51:51;6.80;1.00
5930;DHT22;2990;48.746;9.236;2023-03-26T07:54:22;6.80;1.00
5930;DHT22;2990;48.746;9.236;2023-03-26T07:57:01;6.90;1.00
5930;DHT22;2990;48.746;9.236;2023-03-26T07:59:39;6.80;1.00
5930;DHT22;2990;48.746;9.236;2023-03-26T08:08:39;6.70;1.00
5930;DHT22;2990;48.746;9.236;2023-03-26T08:11:26;6.80;1.00
5930;DHT22;2990;48.746;9.236;2023-03-26T08:30:26;6.60;79.80
5930;DHT22;2990;48.746;9.236;2023-03-26T08:33:48;6.70;99.90
5930;DHT22;2990;48.746;9.236;2023-03-26T08:36:34;6.70;99.90
5930;DHT22;2990;48.746;9.236;2023-03-26T08:39:30;6.70;99.90
5930;DHT22;2990;48.746;9.236;2023-03-26T09:16:32;8.00;99.90
5930;DHT22;2990;48.746;9.236;2023-03-26T09:49:12;9.80;1.00
5930;DHT22;2990;48.746;9.236;2023-03-26T10:20:30;11.40;99.90
5930;DHT22;2990;48.746;9.236;2023-03-26T10:25:48;11.10;1.00
5930;DHT22;2990;48.746;9.236;2023-03-26T10:37:49;11.30;1.00
5930;DHT22;2990;48.746;9.236;2023-03-26T11:12:21;13.30;99.90
5930;DHT22;2990;48.746;9.236;2023-03-26T11:21:45;11.90;99.90
5930;DHT22;2990;48.746;9.236;2023-03-26T11:33:06;13.40;99.90
5930;DHT22;2990;48.746;9.236;2023-03-26T11:35:39;13.90;99.90
5930;DHT22;2990;48.746;9.236;2023-03-26T11:38:19;13.80;99.90
5930;DHT22;2990;48.746;9.236;2023-03-26T11:40:51;14.00;99.90
5930;DHT22;2990;48.746;9.236;2023-03-26T11:43:22;14.30;99.90
5930;DHT22;2990;48.746;9.236;2023-03-26T11:46:21;14.20;99.90
5930;DHT22;2990;48.746;9.236;2023-03-26T11:52:14;14.30;99.90
5930;DHT22;2990;48.746;9.236;2023-03-26T11:54:57;14.70;99.90
5930;DHT22;2990;48.746;9.236;2023-03-26T11:57:59;14.90;99.90
5930;DHT22;2990;48.746;9.236;2023-03-26T12:00:31;15.10;99.90
5930;DHT22;2990;48.746;9.236;2023-03-26T12:03:24;15.00;99.90
5930;DHT22;2990;48.746;9.236;2023-03-26T12:06:04;14.80;99.90
5930;DHT22;2990;48.746;9.236;2023-03-26T12:09:25;14.90;99.90
5930;DHT22;2990;48.746;9.236;2023-03-26T12:12:11;14.80;99.90
5930;DHT22;2990;48.746;9.236;2023-03-26T12:14:43;14.90;95.60
5930;DHT22;2990;48.746;9.236;2023-03-26T12:17:37;14.80;99.90
5930;DHT22;2990;48.746;9.236;2023-03-26T12:26:39;14.90;99.90
5930;DHT22;2990;48.746;9.236;2023-03-26T12:29:33;15.00;79.40
5930;DHT22;2990;48.746;9.236;2023-03-26T12:32:12;15.10;99.90
5930;DHT22;2990;48.746;9.236;2023-03-26T12:34:39;15.00;99.90
5930;DHT22;2990;48.746;9.236;2023-03-26T12:37:07;15.10;96.70
5930;DHT22;2990;48.746;9.236;2023-03-26T12:40:22;14.70;99.90
5930;DHT22;2990;48.746;9.236;2023-03-26T12:42:57;14.40;91.60
5930;DHT22;2990;48.746;9.236;2023-03-26T12:45:42;14.10;99.90
5930;DHT22;2990;48.746;9.236;2023-03-26T12:51:42;13.90;97.70
5930;DHT22;2990;48.746;9.236;2023-03-26T12:54:22;13.90;56.00
5930;DHT22;2990;48.746;9.236;2023-03-26T12:57:34;14.30;99.90
5930;DHT22;2990;48.746;9.236;2023-03-26T13:14:31;14.90;65.10
5930;DHT22;2990;48.746;9.236;2023-03-26T13:17:17;14.70;64.90
5930;DHT22;2990;48.746;9.236;2023-03-26T13:20:04;14.50;61.90
5930;DHT22;2990;48.746;9.236;2023-03-26T13:25:37;14.70;12.40
5930;DHT22;2990;48.746;9.236;2023-03-26T13:31:33;15.90;1.00
5930;DHT22;2990;48.746;9.236;2023-03-26T13:34:24;16.10;29.40
5930;DHT22;2990;48.746;9.236;2023-03-26T13:37:13;16.20;19.50
5930;DHT22;2990;48.746;9.236;2023-03-26T13:40:11;15.70;27.10
5930;DHT22;2990;48.746;9.236;2023-03-26T13:47:54;14.70;38.00
5930;DHT22;2990;48.746;9.236;2023-03-26T13:50:28;14.40;43.00
5930;DHT22;2990;48.746;9.236;2023-03-26T13:53:08;14.20;43.00
5930;DHT22;2990;48.746;9.236;2023-03-26T13:55:47;14.00;54.20
5930;DHT22;2990;48.746;9.236;2023-03-26T14:01:18;13.70;57.00
5930;DHT22;2990;48.746;9.236;2023-03-26T14:17:00;13.30;60.90
5930;DHT22;2990;48.746;9.236;2023-03-26T14:36:52;11.30;99.90
5930;DHT22;2990;48.746;9.236;2023-03-26T14:39:34;10.50;16.00
5930;DHT22;2990;48.746;9.236;2023-03-26T14:42:35;9.80;1.00
5930;DHT22;2990;48.746;9.236;2023-03-26T14:51:16;8.60;83.50
5930;DHT22;2990;48.746;9.236;2023-03-26T14:53:52;8.50;99.90
5930;DHT22;2990;48.746;9.236;2023-03-26T16:59:16;6.70;99.90
5930;DHT22;2990;48.746;9.236;2023-03-26T17:16:03;6.50;99.90
5930;DHT22;2990;48.746;9.236;2023-03-26T17:31:40;6.40;99.90
5930;DHT22;2990;48.746;9.236;2023-03-26T17:36:58;6.40;99.90
5930;DHT22;2990;48.746;9.236;2023-03-26T17:42:34;6.40;99.90
5930;DHT22;2990;48.746;9.236;2023-03-26T17:51:57;6.40;99.90
5930;DHT22;2990;48.746;9.236;2023-03-26T17:57:21;6.40;99.90
5930;DHT22;2990;48.746;9.236;2023-03-26T17:59:50;6.40;99.90
5930;DHT22;2990;48.746;9.236;2023-03-26T18:02:30;6.30;99.90
5930;DHT22;2990;48.746;9.236;2023-03-26T18:04:57;6.30;99.90
5930;DHT22;2990;48.746;9.236;2023-03-26T18:16:12;6.20;99.90
5930;DHT22;2990;48.746;9.236;2023-03-26T18:19:14;6.10;71.50
5930;DHT22;2990;48.746;9.236;2023-03-26T18:21:51;6.10;98.30
5930;DHT22;2990;48.746;9.236;2023-03-26T18:24:24;6.10;99.90
5930;DHT22;2990;48.746;9.236;2023-03-26T18:27:11;6.10;99.90
5930;DHT22;2990;48.746;9.236;2023-03-26T18:30:00;6.00;99.90
5930;DHT22;2990;48.746;9.236;2023-03-26T18:32:30;6.00;99.90
5930;DHT22;2990;48.746;9.236;2023-03-26T18:35:00;6.00;99.90
5930;DHT22;2990;48.746;9.236;2023-03-26T18:42:23;6.10;99.90
5930;DHT22;2990;48.746;9.236;2023-03-26T18:44:50;6.00;99.90
5930;DHT22;2990;48.746;9.236;2023-03-26T18:47:16;6.00;99.90
5930;DHT22;2990;48.746;9.236;2023-03-26T18:49:51;6.10;99.90
5930;DHT22;2990;48.746;9.236;2023-03-26T18:52:21;6.00;99.90
5930;DHT22;2990;48.746;9.236;2023-03-26T18:54:53;6.20;99.90
5930;DHT22;2990;48.746;9.236;2023-03-26T18:57:29;6.20;99.90
5930;DHT22;2990;48.746;9.236;2023-03-26T19:00:22;6.30;99.90
5930;DHT22;2990;48.746;9.236;2023-03-26T19:02:57;6.10;99.90
5930;DHT22;2990;48.746;9.236;2023-03-26T19:05:26;6.10;99.90
5930;DHT22;2990;48.746;9.236;2023-03-26T19:07:54;6.20;99.90
5930;DHT22;2990;48.746;9.236;2023-03-26T19:10:20;6.10;99.90
5930;DHT22;2990;48.746;9.236;2023-03-26T19:12:59;6.20;99.90
5930;DHT22;2990;48.746;9.236;2023-03-26T19:15:27;6.00;99.70
5930;DHT22;2990;48.746;9.236;2023-03-26T19:18:02;6.00;99.90
5930;DHT22;2990;48.746;9.236;2023-03-26T19:20:58;6.00;99.90
5930;DHT22;2990;48.746;9.236;2023-03-26T19:23:44;5.90;99.90
5930;DHT22;2990;48.746;9.236;2023-03-26T19:26:11;5.90;99.90
5930;DHT22;2990;48.746;9.236;2023-03-26T19:28:56;5.90;99.90
5930;DHT22;2990;48.746;9.236;2023-03-26T19:31:51;5.90;99.90
5930;DHT22;2990;48.746;9.236;2023-03-26T19:39:23;5.90;99.90
5930;DHT22;2990;48.746;9.236;2023-03-26T19:41:50;6.00;99.90
5930;DHT22;2990;48.746;9.236;2023-03-26T19:46:48;6.00;99.90
5930;DHT22;2990;48.746;9.236;2023-03-26T19:52:01;6.00;99.90
5930;DHT22;2990;48.746;9.236;2023-03-26T19:54:30;5.90;99.90
5930;DHT22;2990;48.746;9.236;2023-03-26T19:56:58;6.00;99.90
5930;DHT22;2990;48.746;9.236;2023-03-26T19:59:27;5.80;99.90
5930;DHT22;2990;48.746;9.236;2023-03-26T20:02:10;5.80;99.90
5930;DHT22;2990;48.746;9.236;2023-03-26T20:04:40;5.80;99.90
5930;DHT22;2990;48.746;9.236;2023-03-26T20:07:11;5.70;1.00
5930;DHT22;2990;48.746;9.236;2023-03-26T20:09:42;5.70;1.00
5930;DHT22;2990;48.746;9.236;2023-03-26T20:12:10;5.60;1.00
5930;DHT22;2990;48.746;9.236;2023-03-26T20:14:39;5.60;1.00
5930;DHT22;2990;48.746;9.236;2023-03-26T20:17:10;5.80;1.00
5930;DHT22;2990;48.746;9.236;2023-03-26T20:19:43;5.70;99.90
5930;DHT22;2990;48.746;9.236;2023-03-26T20:22:17;5.70;99.90
5930;DHT22;2990;48.746;9.236;2023-03-26T20:24:47;5.70;99.90
5930;DHT22;2990;48.746;9.236;2023-03-26T20:27:13;5.80;99.90
5930;DHT22;2990;48.746;9.236;2023-03-26T20:29:40;5.80;99.90
5930;DHT22;2990;48.746;9.236;2023-03-26T20:32:18;5.60;58.60
5930;DHT22;2990;48.746;9.236;2023-03-26T20:34:50;5.80;6.90
5930;DHT22;2990;48.746;9.236;2023-03-26T20:37:23;5.60;1.00
5930;DHT22;2990;48.746;9.236;2023-03-26T20:39:49;5.70;1.00
5930;DHT22;2990;48.746;9.236;2023-03-26T20:42:17;5.60;1.00
5930;DHT22;2990;48.746;9.236;2023-03-26T20:44:43;5.60;1.00
5930;DHT22;2990;48.746;9.236;2023-03-26T20:47:09;5.30;1.00
5930;DHT22;2990;48.746;9.236;2023-03-26T20:49:35;5.50;1.00
5930;DHT22;2990;48.746;9.236;2023-03-26T20:52:05;5.40;1.00
5930;DHT22;2990;48.746;9.236;2023-03-26T20:54:30;5.40;14.90
5930;DHT22;2990;48.746;9.236;2023-03-26T20:56:56;5.30;61.20
5930;DHT22;2990;48.746;9.236;2023-03-26T20:59:25;5.30;99.90
5930;DHT22;2990;48.746;9.236;2023-03-26T21:01:55;5.20;99.90
5930;DHT22;2990;48.746;9.236;2023-03-26T21:04:30;5.10;99.90
5930;DHT22;2990;48.746;9.236;2023-03-26T21:07:03;5.10;99.90
5930;DHT22;2990;48.746;9.236;2023-03-26T21:09:35;5.00;99.90
5930;DHT22;2990;48.746;9.236;2023-03-26T21:12:33;5.10;99.90
5930;DHT22;2990;48.746;9.236;2023-03-26T21:15:25;5.00;99.90
5930;DHT22;2990;48.746;9.236;2023-03-26T21:24:06;5.00;99.90
5930;DHT22;2990;48.746;9.236;2023-03-26T21:26:47;5.00;99.90
5930;DHT22;2990;48.746;9.236;2023-03-26T21:29:18;5.10;99.90
5930;DHT22;2990;48.746;9.236;2023-03-26T21:31:47;5.10;99.90
5930;DHT22;2990;48.746;9.236;2023-03-26T21:34:36;5.00;99.90
5930;DHT22;2990;48.746;9.236;2023-03-26T21:37:03;5.20;99.90
5930;DHT22;2990;48.746;9.236;2023-03-26T21:39:32;5.20;99.90
5930;DHT22;2990;48.746;9.236;2023-03-26T21:42:09;5.20;99.90
5930;DHT22;2990;48.746;9.236;2023-03-26T21:44:44;5.20;99.90
5930;DHT22;2990;48.746;9.236;2023-03-26T21:47:14;5.20;1.00
5930;DHT22;2990;48.746;9.236;2023-03-26T21:49:43;5.20;1.00
5930;DHT22;2990;48.746;9.236;2023-03-26T21:52:12;5.20;1.00
5930;DHT22;2990;48.746;9.236;2023-03-26T21:54:38;5.20;1.00
5930;DHT22;2990;48.746;9.236;2023-03-26T22:00:12;5.10;1.00
5930;DHT22;2990;48.746;9.236;2023-03-26T22:05:58;5.00;1.00
5930;DHT22;2990;48.746;9.236;2023-03-26T22:08:35;5.00;1.00
5930;DHT22;2990;48.746;9.236;2023-03-26T22:11:06;5.00;1.00
5930;DHT22;2990;48.746;9.236;2023-03-26T22:13:35;5.20;1.00
5930;DHT22;2990;48.746;9.236;2023-03-26T22:16:06;4.80;1.00
5930;DHT22;2990;48.746;9.236;2023-03-26T22:18:33;5.00;1.00
5930;DHT22;2990;48.746;9.236;2023-03-26T22:20:59;5.00;14.40
5930;DHT22;2990;48.746;9.236;2023-03-26T22:23:26;5.00;36.60
5930;DHT22;2990;48.746;9.236;2023-03-26T22:25:52;5.00;60.30
5930;DHT22;2990;48.746;9.236;2023-03-26T22:28:18;4.90;85.20
5930;DHT22;2990;48.746;9.236;2023-03-26T22:30:44;5.10;99.90
5930;DHT22;2990;48.746;9.236;2023-03-26T22:33:13;4.90;99.90
5930;DHT22;2990;48.746;9.236;2023-03-26T22:35:45;5.00;99.90
5930;DHT22;2990;48.746;9.236;2023-03-26T22:38:13;5.00;99.90
5930;DHT22;2990;48.746;9.236;2023-03-26T22:40:46;4.90;99.90
5930;DHT22;2990;48.746;9.236;2023-03-26T22:43:18;5.00;99.90
5930;DHT22;2990;48.746;9.236;2023-03-26T22:45:49;4.90;99.90
5930;DHT22;2990;48.746;9.236;2023-03-26T22:48:21;5.00;99.90
5930;DHT22;2990;48.746;9.236;2023-03-26T22:51:05;5.00;99.90
5930;DHT22;2990;48.746;9.236;2023-03-26T22:53:33;5.00;99.90
5930;DHT22;2990;48.746;9.236;2023-03-26T22:55:59;5.00;99.90
5930;DHT22;2990;48.746;9.236;2023-03-26T22:58:25;5.10;99.90
5930;DHT22;2990;48.746;9.236;2023-03-26T23:01:00;5.00;99.90
5930;DHT22;2990;48.746;9.236;2023-03-26T23:03:26;5.10;99.90
5930;DHT22;2990;48.746;9.236;2023-03-26T23:05:57;5.10;99.90
5930;DHT22;2990;48.746;9.236;2023-03-26T23:08:26;5.10;99.90
5930;DHT22;2990;48.746;9.236;2023-03-26T23:10:52;5.10;99.90
5930;DHT22;2990;48.746;9.236;2023-03-26T23:13:19;5.10;99.90
5930;DHT22;2990;48.746;9.236;2023-03-26T23:15:51;5.10;99.90
5930;DHT22;2990;48.746;9.236;2023-03-26T23:18:18;5.10;99.90
5930;DHT22;2990;48.746;9.236;2023-03-26T23:20:52;5.10;99.90
5930;DHT22;2990;48.746;9.236;2023-03-26T23:23:22;5.10;99.90
5930;DHT22;2990;48.746;9.236;2023-03-26T23:25:53;5.20;99.90
5930;DHT22;2990;48.746;9.236;2023-03-26T23:28:19;5.10;99.90
5930;DHT22;2990;48.746;9.236;2023-03-26T23:30:51;5.10;99.90
5930;DHT22;2990;48.746;9.236;2023-03-26T23:33:22;5.10;99.90
5930;DHT22;2990;48.746;9.236;2023-03-26T23:35:55;5.10;99.90
5930;DHT22;2990;48.746;9.236;2023-03-26T23:38:25;5.20;99.90
5930;DHT22;2990;48.746;9.236;2023-03-26T23:40:54;5.10;99.90
5930;DHT22;2990;48.746;9.236;2023-03-26T23:43:25;5.20;99.90
5930;DHT22;2990;48.746;9.236;2023-03-26T23:45:51;5.20;99.90
5930;DHT22;2990;48.746;9.236;2023-03-26T23:48:20;5.40;99.90
5930;DHT22;2990;48.746;9.236;2023-03-26T23:50:51;5.20;99.90
5930;DHT22;2990;48.746;9.236;2023-03-26T23:53:21;5.30;99.90
5930;DHT22;2990;48.746;9.236;2023-03-26T23:55:49;5.30;99.90
5930;DHT22;2990;48.746;9.236;2023-03-26T23:58:16;5.30;99.90
